Time;durP1;ratioP1;P1;durP2;ratioP2;P2;SDS_P1;SDS_P2;PMS_P1;PMS_P2;Temp;Humidity;BMP_temperature;BMP_pressure;BME280_temperature;BME280_humidity;BME280_pressure;Samples;Min_cycle;Max_cycle;Signal;HPM_P1;HPM_P2
2023/03/19 00:00:31;;;;;;;0.80;0.47;;;;;;;20.93;43.75;101032.53;5026190;27;97088;-75
2023/03/19 00:02:58;;;;;;;0.95;0.50;;;;;;;20.89;43.95;101026.56;5031534;27;96950;-74
2023/03/19 00:05:25;;;;;;;1.10;0.43;;;;;;;20.86;44.06;101032.38;5044478;27;97979;-74
2023/03/19 00:07:51;;;;;;;0.93;0.60;;;;;;;20.89;43.81;101029.31;5041324;27;96984;-75
2023/03/19 00:10:18;;;;;;;0.50;0.40;;;;;;;20.90;43.79;101025.56;5046830;27;96753;-75
2023/03/19 00:12:45;;;;;;;0.90;0.50;;;;;;;20.91;43.91;101034.59;5043703;27;96894;-74
2023/03/19 00:15:13;;;;;;;0.60;0.30;;;;;;;20.92;43.56;101028.09;5045288;27;97003;-74
2023/03/19 00:17:43;;;;;;;0.43;0.40;;;;;;;20.91;43.77;101027.25;5044990;27;97191;-74
2023/03/19 00:20:11;;;;;;;0.50;0.35;;;;;;;20.88;43.65;101027.59;5025730;27;96959;-75
2023/03/19 00:22:38;;;;;;;0.55;0.40;;;;;;;20.89;43.82;101032.03;5038490;27;97549;-75
2023/03/19 00:25:07;;;;;;;0.65;0.40;;;;;;;20.90;43.60;101024.69;5049010;27;97912;-74
2023/03/19 00:27:34;;;;;;;0.55;0.30;;;;;;;20.92;43.64;101031.69;5042542;27;96663;-75
2023/03/19 00:30:01;;;;;;;0.40;0.30;;;;;;;20.94;43.73;101026.06;5043302;27;96770;-75
2023/03/19 00:32:27;;;;;;;0.68;0.40;;;;;;;20.91;43.63;101023.66;5031221;27;97886;-74
2023/03/19 00:34:54;;;;;;;1.05;0.40;;;;;;;20.91;43.42;101021.78;5023516;27;98679;-75
2023/03/19 00:37:21;;;;;;;0.47;0.30;;;;;;;20.94;43.56;101024.19;5043593;27;97175;-74
2023/03/19 00:39:47;;;;;;;0.70;0.32;;;;;;;20.93;43.79;101022.47;5027650;27;97914;-75
2023/03/19 00:42:14;;;;;;;0.60;0.40;;;;;;;20.90;43.85;101020.09;5039243;27;97876;-74
2023/03/19 00:44:41;;;;;;;0.45;0.40;;;;;;;20.90;43.84;101025.56;5029413;27;97491;-74
2023/03/19 00:47:07;;;;;;;0.73;0.30;;;;;;;20.92;43.69;101023.50;5043107;27;96914;-75
2023/03/19 00:49:34;;;;;;;0.55;0.40;;;;;;;20.92;43.76;101031.69;5029169;27;97037;-74
2023/03/19 00:52:00;;;;;;;0.60;0.40;;;;;;;20.90;43.62;101030.16;5042749;27;97037;-74
2023/03/19 00:54:27;;;;;;;0.65;0.45;;;;;;;20.88;43.52;101030.34;5030036;27;98477;-74
2023/03/19 00:56:55;;;;;;;0.65;0.40;;;;;;;20.90;43.79;101031.00;5029011;27;96834;-74
2023/03/19 00:59:24;;;;;;;0.57;0.40;;;;;;;20.88;43.64;101030.34;5008676;27;97106;-75
2023/03/19 01:01:51;;;;;;;1.17;0.30;;;;;;;20.88;43.68;101041.25;5029506;27;98751;-75
2023/03/19 01:04:19;;;;;;;0.43;0.38;;;;;;;20.88;43.49;101040.41;5024840;27;99423;-75
2023/03/19 01:06:45;;;;;;;0.75;0.38;;;;;;;20.87;43.87;101038.69;5028748;27;96849;-74
2023/03/19 01:09:12;;;;;;;1.55;0.30;;;;;;;20.87;43.64;101034.09;5029954;27;97128;-75
2023/03/19 01:11:39;;;;;;;0.50;0.35;;;;;;;20.87;43.79;101034.09;5022240;27;97665;-74
2023/03/19 01:14:07;;;;;;;0.55;0.40;;;;;;;20.90;43.77;101038.34;5027992;27;99686;-74
2023/03/19 01:16:34;;;;;;;0.80;0.43;;;;;;;20.91;43.70;101032.72;5010578;27;98393;-74
2023/03/19 01:19:02;;;;;;;0.57;0.40;;;;;;;20.89;43.70;101039.38;5023424;27;97689;-75
2023/03/19 01:21:32;;;;;;;0.45;0.35;;;;;;;20.87;43.51;101033.22;5022439;27;96879;-74
2023/03/19 01:23:58;;;;;;;0.52;0.30;;;;;;;20.88;43.40;101032.22;5027329;27;99477;-75
2023/03/19 01:26:26;;;;;;;0.50;0.40;;;;;;;20.86;43.79;101024.19;5014881;27;96899;-74
2023/03/19 01:28:59;;;;;;;0.70;0.40;;;;;;;20.90;43.75;101022.81;5028592;27;96723;-75
2023/03/19 01:31:27;;;;;;;0.70;0.40;;;;;;;21.02;43.33;101025.19;5032786;27;98993;-74
2023/03/19 01:34:13;;;;;;;0.57;0.38;;;;;;;20.91;43.65;101027.25;5051321;27;97719;-75
2023/03/19 01:36:51;;;;;;;0.30;0.30;;;;;;;20.88;43.74;101024.88;5042109;27;96968;-75
2023/03/19 01:39:25;;;;;;;0.40;0.30;;;;;;;20.85;43.71;101018.91;5029017;27;96754;-74
2023/03/19 01:41:51;;;;;;;0.80;0.40;;;;;;;20.85;43.47;101025.22;5040981;27;97835;-74
2023/03/19 01:44:37;;;;;;;0.32;0.30;;;;;;;20.89;43.59;101018.38;5016944;27;98074;-74
2023/03/19 01:47:28;;;;;;;0.65;0.50;;;;;;;20.90;43.33;101020.09;5046265;27;96725;-74
2023/03/19 01:50:24;;;;;;;0.60;0.30;;;;;;;20.88;43.58;101010.38;5045775;27;97291;-75
2023/03/19 01:53:20;;;;;;;1.70;0.40;;;;;;;20.88;43.53;101008.50;5030758;27;97605;-75
2023/03/19 01:56:07;;;;;;;0.43;0.30;;;;;;;20.86;43.48;101009.69;5015441;27;96931;-74
2023/03/19 01:58:49;;;;;;;0.35;0.32;;;;;;;20.87;43.67;101012.25;5032585;27;96609;-75
2023/03/19 02:01:30;;;;;;;0.55;0.40;;;;;;;20.89;43.61;101020.25;5016869;27;97098;-75
2023/03/19 02:03:58;;;;;;;1.27;0.40;;;;;;;20.94;43.62;101018.72;5041922;27;100333;-74
2023/03/19 02:06:29;;;;;;;0.75;0.43;;;;;;;20.88;43.49;101015.81;5028073;27;98726;-74
2023/03/19 02:08:57;;;;;;;0.50;0.30;;;;;;;20.85;43.38;101019.75;5022704;27;96914;-75
2023/03/19 02:11:25;;;;;;;0.60;0.40;;;;;;;20.84;43.60;101023.50;5033387;27;96815;-75
2023/03/19 02:13:52;;;;;;;0.50;0.38;;;;;;;20.85;43.65;101017.03;5033327;27;96775;-75
2023/03/19 02:16:19;;;;;;;0.60;0.40;;;;;;;20.86;43.68;101026.91;5013808;27;100670;-75
2023/03/19 02:18:46;;;;;;;0.60;0.30;;;;;;;20.86;43.40;101023.34;5045166;27;96938;-75
2023/03/19 02:21:18;;;;;;;0.43;0.22;;;;;;;20.88;43.55;101015.81;5034776;27;97577;-75
2023/03/19 02:24:02;;;;;;;0.38;0.30;;;;;;;20.91;43.63;101016.34;5036601;27;99009;-74
2023/03/19 02:26:49;;;;;;;0.50;0.30;;;;;;;20.92;43.55;101019.91;5043194;27;97294;-74
2023/03/19 02:29:16;;;;;;;0.45;0.40;;;;;;;20.89;43.72;101018.38;5011505;27;96870;-75
2023/03/19 02:31:44;;;;;;;0.47;0.40;;;;;;;20.86;43.67;101017.88;5033238;27;96837;-74
2023/03/19 02:34:20;;;;;;;0.55;0.38;;;;;;;20.85;43.49;101017.03;5029922;27;99107;-74
2023/03/19 02:36:57;;;;;;;0.80;0.40;;;;;;;20.86;43.43;101023.34;5029020;27;100736;-74
2023/03/19 02:39:33;;;;;;;0.68;0.40;;;;;;;20.84;43.75;101017.19;5047558;27;97310;-75
2023/03/19 02:42:01;;;;;;;0.77;0.35;;;;;;;20.85;43.44;101018.91;5029775;27;96772;-74
2023/03/19 02:44:29;;;;;;;0.60;0.40;;;;;;;20.84;43.41;101018.03;5030052;27;96855;-75
2023/03/19 02:46:56;;;;;;;0.60;0.32;;;;;;;20.86;43.30;101018.72;5046317;27;97269;-74
2023/03/19 02:49:23;;;;;;;0.60;0.30;;;;;;;20.92;43.26;101018.03;5031267;27;96776;-74
2023/03/19 02:51:50;;;;;;;0.43;0.30;;;;;;;20.89;43.44;101021.13;5029420;27;96771;-74
2023/03/19 02:54:17;;;;;;;0.52;0.40;;;;;;;20.86;43.49;101012.41;5026684;27;100566;-74
2023/03/19 02:56:43;;;;;;;0.57;0.40;;;;;;;20.86;43.66;101018.72;5026690;27;99255;-74
2023/03/19 02:59:09;;;;;;;0.60;0.35;;;;;;;20.85;43.47;101021.63;5030919;27;96883;-74
2023/03/19 03:01:36;;;;;;;0.82;0.40;;;;;;;20.85;43.21;101036.13;5025116;27;99638;-74
2023/03/19 03:04:03;;;;;;;0.50;0.30;;;;;;;20.89;43.42;101042.09;5041307;27;98120;-75
2023/03/19 03:06:31;;;;;;;0.70;0.40;;;;;;;20.88;43.47;101034.94;5050095;27;97172;-74
2023/03/19 03:09:00;;;;;;;0.40;0.30;;;;;;;20.85;43.50;101035.28;5026163;27;96872;-75
2023/03/19 03:11:27;;;;;;;0.30;0.30;;;;;;;20.84;43.40;101034.44;5042905;27;98222;-74
2023/03/19 03:13:53;;;;;;;0.35;0.30;;;;;;;20.83;43.57;101031.88;5041968;27;98396;-74
2023/03/19 03:16:20;;;;;;;0.60;0.50;;;;;;;20.83;43.29;101032.72;5031928;27;100646;-74
2023/03/19 03:18:47;;;;;;;0.70;0.50;;;;;;;20.84;43.51;101034.44;5028673;27;98095;-75
2023/03/19 03:21:14;;;;;;;0.63;0.40;;;;;;;20.86;43.43;101036.97;5014799;27;97002;-74
2023/03/19 03:23:40;;;;;;;0.60;0.30;;;;;;;20.89;43.38;101042.09;5044597;27;96944;-74
2023/03/19 03:26:07;;;;;;;0.88;0.40;;;;;;;20.86;43.41;101048.75;5043879;27;97163;-74
2023/03/19 03:28:34;;;;;;;0.70;0.30;;;;;;;20.87;43.47;101046.88;5047698;27;97079;-74
2023/03/19 03:31:01;;;;;;;0.70;0.50;;;;;;;20.87;43.39;101050.47;5041576;27;97041;-74
2023/03/19 03:33:28;;;;;;;0.57;0.43;;;;;;;20.84;43.40;101042.63;5047699;27;98226;-75
2023/03/19 03:35:55;;;;;;;0.63;0.50;;;;;;;20.84;43.36;101039.88;5023438;27;97543;-74
2023/03/19 03:38:22;;;;;;;0.30;0.30;;;;;;;20.83;43.49;101042.78;5043843;27;97010;-74
2023/03/19 03:40:51;;;;;;;0.65;0.40;;;;;;;20.83;43.31;101043.63;5031067;27;96885;-75
2023/03/19 03:43:20;;;;;;;0.57;0.38;;;;;;;20.84;43.42;101039.03;5024096;27;99688;-74
2023/03/19 03:45:47;;;;;;;0.50;0.40;;;;;;;20.84;43.46;101045.34;5029035;27;100215;-74
2023/03/19 03:48:15;;;;;;;0.47;0.40;;;;;;;20.84;43.67;101044.50;5031282;27;96985;-75
2023/03/19 03:50:42;;;;;;;0.75;0.35;;;;;;;20.84;43.49;101033.56;5028441;27;96642;-74
2023/03/19 03:53:14;;;;;;;0.55;0.32;;;;;;;20.88;43.58;101040.41;5027598;27;99657;-74
2023/03/19 03:55:40;;;;;;;0.50;0.30;;;;;;;20.85;43.48;101038.88;5011621;27;99426;-74
2023/03/19 03:58:07;;;;;;;0.60;0.40;;;;;;;20.85;43.33;101040.75;5028448;27;99289;-74
2023/03/19 04:00:34;;;;;;;0.98;0.40;;;;;;;20.80;43.46;101041.22;5030855;27;97369;-75
2023/03/19 04:03:01;;;;;;;0.57;0.40;;;;;;;20.80;43.43;101046.69;5012527;27;100500;-74
2023/03/19 04:05:28;;;;;;;1.02;0.47;;;;;;;20.87;43.23;101049.59;5028823;27;97430;-74
2023/03/19 04:07:55;;;;;;;0.47;0.30;;;;;;;20.87;43.07;101060.53;5044088;27;96754;-75
2023/03/19 04:10:23;;;;;;;0.77;0.38;;;;;;;20.84;43.24;101059.00;5029057;27;97382;-75
2023/03/19 04:12:49;;;;;;;0.30;0.30;;;;;;;20.81;43.32;101053.88;5011968;27;100337;-75
2023/03/19 04:15:16;;;;;;;0.57;0.30;;;;;;;20.79;43.35;101060.50;5011223;27;99859;-74
2023/03/19 04:17:44;;;;;;;0.47;0.30;;;;;;;20.76;43.76;101058.97;5027951;27;97498;-75
2023/03/19 04:20:12;;;;;;;0.43;0.28;;;;;;;20.77;43.34;101063.41;5025205;27;97465;-74
2023/03/19 04:22:39;;;;;;;0.40;0.40;;;;;;;20.77;43.59;101060.66;5025685;27;99429;-74
2023/03/19 04:25:08;;;;;;;0.70;0.40;;;;;;;20.77;43.38;101060.66;5029772;27;99130;-74
2023/03/19 04:27:36;;;;;;;0.80;0.50;;;;;;;20.75;43.38;101057.25;5025852;27;97084;-74
2023/03/19 04:30:03;;;;;;;0.80;0.63;;;;;;;20.76;43.47;101060.84;5011851;27;96890;-74
2023/03/19 04:32:30;;;;;;;0.50;0.40;;;;;;;20.77;43.39;101060.66;5004662;27;96968;-75
2023/03/19 04:34:57;;;;;;;0.60;0.40;;;;;;;20.77;43.27;101063.41;5011456;27;96717;-75
2023/03/19 04:37:24;;;;;;;0.82;0.40;;;;;;;20.78;43.70;101064.25;5045115;27;96759;-74
2023/03/19 04:39:50;;;;;;;0.88;0.32;;;;;;;20.78;43.65;101064.25;5028090;27;97293;-74
2023/03/19 04:42:17;;;;;;;0.32;0.25;;;;;;;20.79;43.56;101075.00;5043329;27;96876;-74
2023/03/19 04:44:51;;;;;;;0.45;0.38;;;;;;;20.79;43.39;101076.88;5025656;27;96717;-75
2023/03/19 04:47:18;;;;;;;0.70;0.40;;;;;;;20.79;43.35;101074.16;5025229;27;96849;-74
2023/03/19 04:49:52;;;;;;;0.47;0.40;;;;;;;20.79;43.69;101069.53;5026368;27;96712;-75
2023/03/19 04:52:19;;;;;;;0.30;0.30;;;;;;;20.81;43.30;101069.41;5011866;27;99009;-75
2023/03/19 04:54:47;;;;;;;0.88;0.40;;;;;;;20.80;43.31;101073.97;5028957;27;97621;-74
2023/03/19 04:57:14;;;;;;;0.55;0.40;;;;;;;20.80;43.20;101071.25;5024305;27;96651;-75
2023/03/19 04:59:43;;;;;;;0.47;0.30;;;;;;;20.81;43.63;101075.72;5024244;27;97087;-74
2023/03/19 05:02:12;;;;;;;0.52;0.35;;;;;;;20.81;43.39;101074.88;5010220;27;97158;-75
2023/03/19 05:04:40;;;;;;;0.63;0.50;;;;;;;20.82;43.49;101077.41;5026655;27;98710;-74
2023/03/19 05:07:10;;;;;;;0.70;0.50;;;;;;;20.82;43.18;101077.41;5034260;27;96913;-74
2023/03/19 05:09:37;;;;;;;0.60;0.50;;;;;;;20.80;43.49;101079.44;5028193;27;97575;-74
2023/03/19 05:12:04;;;;;;;0.88;0.40;;;;;;;20.81;43.58;101077.59;5032995;27;99350;-74
2023/03/19 05:14:36;;;;;;;0.38;0.30;;;;;;;20.81;43.44;101083.91;5031685;27;97319;-74
2023/03/19 05:17:24;;;;;;;0.85;0.40;;;;;;;20.82;43.44;101073.84;5028110;27;97270;-75
2023/03/19 05:20:08;;;;;;;0.40;0.32;;;;;;;20.80;43.50;101086.78;5022639;27;96936;-74
2023/03/19 05:22:38;;;;;;;0.60;0.30;;;;;;;20.81;43.29;101092.09;5027930;27;97166;-74
2023/03/19 05:25:05;;;;;;;0.40;0.30;;;;;;;20.81;43.55;101096.69;5029786;27;99389;-74
2023/03/19 05:27:33;;;;;;;0.50;0.40;;;;;;;20.81;43.52;101094.81;5024923;27;97151;-74
2023/03/19 05:30:04;;;;;;;0.65;0.40;;;;;;;20.81;43.40;101094.81;5025119;27;96854;-74
2023/03/19 05:32:56;;;;;;;0.60;0.35;;;;;;;20.79;43.39;101095.97;5016644;27;97951;-75
2023/03/19 05:35:31;;;;;;;0.40;0.40;;;;;;;20.78;43.65;101097.00;5030118;27;97588;-75
2023/03/19 05:38:00;;;;;;;0.57;0.38;;;;;;;20.81;43.25;101096.69;5021245;27;96693;-75
2023/03/19 05:40:28;;;;;;;0.35;0.35;;;;;;;20.82;43.20;101102.00;5026080;27;97191;-75
2023/03/19 05:42:57;;;;;;;0.55;0.40;;;;;;;20.83;43.26;101102.84;5029806;27;100030;-74
2023/03/19 05:45:26;;;;;;;0.47;0.40;;;;;;;20.82;43.20;101103.88;5028800;27;99396;-74
2023/03/19 05:47:57;;;;;;;0.50;0.40;;;;;;;20.80;43.24;101106.72;5031059;27;97058;-74
2023/03/19 05:50:24;;;;;;;0.70;0.40;;;;;;;20.82;43.56;101112.06;5028719;27;98535;-75
2023/03/19 05:53:17;;;;;;;0.60;0.40;;;;;;;20.82;43.42;101110.19;5014515;27;99764;-75
2023/03/19 05:55:58;;;;;;;0.50;0.35;;;;;;;20.80;43.21;101120.38;5028803;27;97607;-74
2023/03/19 05:58:27;;;;;;;0.55;0.30;;;;;;;20.81;43.42;101118.53;5026127;27;96729;-75
2023/03/19 06:00:57;;;;;;;0.80;0.43;;;;;;;20.81;43.57;101122.13;5031438;27;96976;-75
2023/03/19 06:03:26;;;;;;;0.63;0.40;;;;;;;20.82;43.19;101121.09;5024723;28;97711;-75
2023/03/19 06:05:53;;;;;;;0.40;0.32;;;;;;;20.81;43.24;101127.56;5031079;27;96773;-74
2023/03/19 06:08:41;;;;;;;0.50;0.38;;;;;;;20.81;43.49;101124.00;5044253;27;97013;-74
2023/03/19 06:11:14;;;;;;;0.45;0.30;;;;;;;20.80;43.20;101131.31;5024086;27;98418;-75
2023/03/19 06:13:45;;;;;;;0.55;0.30;;;;;;;20.79;43.18;101137.78;5024478;27;98848;-75
2023/03/19 06:16:15;;;;;;;0.80;0.40;;;;;;;20.79;43.32;101137.78;5025858;27;99822;-75
2023/03/19 06:18:52;;;;;;;0.50;0.30;;;;;;;20.82;43.06;101139.34;5029562;27;96932;-75
2023/03/19 06:21:19;;;;;;;0.50;0.32;;;;;;;20.82;43.61;101137.47;5013481;27;96998;-74
2023/03/19 06:23:46;;;;;;;0.40;0.30;;;;;;;20.83;43.22;101141.06;5043362;27;96926;-74
2023/03/19 06:26:17;;;;;;;0.47;0.30;;;;;;;20.82;43.17;101140.22;5045294;27;97317;-74
2023/03/19 06:28:51;;;;;;;0.60;0.40;;;;;;;20.83;43.30;101146.53;5026515;27;97244;-75
2023/03/19 06:31:18;;;;;;;0.43;0.32;;;;;;;20.81;43.38;101154.03;5032720;27;96820;-74
2023/03/19 06:34:00;;;;;;;0.43;0.35;;;;;;;20.81;43.42;101152.16;5031301;27;99026;-74
2023/03/19 06:36:36;;;;;;;0.77;0.55;;;;;;;20.81;43.45;101154.88;5025536;27;98849;-77
2023/03/19 06:39:04;;;;;;;0.95;0.60;;;;;;;20.81;43.29;101162.22;5025603;27;97728;-76
2023/03/19 06:41:30;;;;;;;0.45;0.40;;;;;;;20.80;43.34;101158.59;5040555;27;96876;-76
2023/03/19 06:44:08;;;;;;;0.77;0.38;;;;;;;20.82;43.52;101158.47;5028354;27;97207;-76
2023/03/19 06:46:34;;;;;;;1.02;0.50;;;;;;;20.82;43.33;101156.59;5043222;27;96739;-76
2023/03/19 06:49:01;;;;;;;0.80;0.50;;;;;;;20.82;43.57;101162.03;5044542;27;96736;-76
2023/03/19 06:51:28;;;;;;;0.60;0.30;;;;;;;20.82;43.42;101167.50;5027422;27;97750;-77
2023/03/19 06:53:55;;;;;;;0.57;0.40;;;;;;;20.83;43.24;101173.81;5045179;27;97153;-76
2023/03/19 06:56:22;;;;;;;0.45;0.32;;;;;;;20.82;43.38;101163.91;5048084;27;96709;-76
2023/03/19 06:58:48;;;;;;;0.68;0.40;;;;;;;20.81;43.27;101171.25;5038666;27;96655;-75
2023/03/19 07:01:15;;;;;;;0.50;0.35;;;;;;;20.83;43.11;101171.94;5045425;27;96801;-75
2023/03/19 07:03:42;;;;;;;0.17;0.17;;;;;;;20.82;43.27;101185.75;5037549;27;96929;-75
2023/03/19 07:06:09;;;;;;;0.43;0.30;;;;;;;20.81;43.39;101186.78;5050767;27;96744;-75
2023/03/19 07:08:35;;;;;;;0.60;0.40;;;;;;;20.82;43.33;101193.94;5032767;27;96682;-75
2023/03/19 07:11:04;;;;;;;1.58;0.70;;;;;;;20.84;43.40;101198.22;5044022;27;96707;-75
2023/03/19 07:13:31;;;;;;;0.50;0.32;;;;;;;20.85;43.35;101199.06;5025114;27;96753;-75
2023/03/19 07:15:59;;;;;;;0.82;0.40;;;;;;;20.83;43.18;101195.66;5032200;27;96675;-76
2023/03/19 07:18:26;;;;;;;0.50;0.40;;;;;;;20.83;43.26;101191.06;5041298;27;96993;-75
2023/03/19 07:20:52;;;;;;;0.55;0.30;;;;;;;20.84;43.42;101192.75;5019832;27;96783;-75
2023/03/19 07:23:19;;;;;;;1.27;0.40;;;;;;;20.84;43.50;101197.38;5006148;27;97818;-75
2023/03/19 07:25:46;;;;;;;0.80;0.40;;;;;;;20.84;43.38;101206.41;5038988;27;97240;-75
2023/03/19 07:28:14;;;;;;;0.98;0.38;;;;;;;20.83;43.24;101204.69;5033343;27;97604;-75
2023/03/19 07:30:40;;;;;;;0.60;0.32;;;;;;;20.83;43.22;101212.88;5004536;28;97037;-75
2023/03/19 07:33:07;;;;;;;0.63;0.20;;;;;;;20.82;43.44;101199.41;5043278;27;98438;-75
2023/03/19 07:35:34;;;;;;;1.60;0.40;;;;;;;20.78;43.41;101203.47;5022171;27;97175;-76
2023/03/19 07:38:01;;;;;;;0.63;0.47;;;;;;;20.79;43.33;101213.34;5034423;27;96839;-75
2023/03/19 07:40:28;;;;;;;0.55;0.40;;;;;;;20.78;43.39;101214.38;5044010;27;96670;-75
2023/03/19 07:42:54;;;;;;;0.50;0.40;;;;;;;20.76;43.72;101217.28;5039135;27;97396;-75
2023/03/19 07:45:22;;;;;;;0.50;0.35;;;;;;;20.79;43.35;101221.53;5019003;28;98748;-75
2023/03/19 07:47:50;;;;;;;0.95;0.50;;;;;;;20.80;43.45;101220.53;5038423;27;96644;-75
2023/03/19 07:50:17;;;;;;;0.70;0.40;;;;;;;20.81;43.43;101225.00;5034117;27;96915;-75
2023/03/19 07:52:47;;;;;;;0.75;0.40;;;;;;;20.82;43.42;101219.38;5033483;27;97659;-75
2023/03/19 07:55:16;;;;;;;0.85;0.63;;;;;;;20.86;43.40;101220.75;5033583;27;96895;-75
2023/03/19 07:57:42;;;;;;;1.10;0.60;;;;;;;20.86;43.56;101218.03;5046243;27;97040;-75
2023/03/19 08:00:10;;;;;;;0.85;0.40;;;;;;;20.90;43.29;101216.66;5041456;27;96730;-76
2023/03/19 08:02:39;;;;;;;0.90;0.60;;;;;;;20.89;43.26;101219.56;5010999;28;97614;-76
2023/03/19 08:05:06;;;;;;;1.02;0.40;;;;;;;20.92;43.19;101220.06;5029108;27;96835;-75
2023/03/19 08:07:33;;;;;;;0.93;0.50;;;;;;;20.93;43.20;101223.66;5036618;27;96675;-75
2023/03/19 08:09:59;;;;;;;0.82;0.40;;;;;;;20.95;43.22;101224.34;5036078;27;96986;-76
2023/03/19 08:12:26;;;;;;;1.45;0.60;;;;;;;20.94;43.32;101228.97;5030714;27;97116;-75
2023/03/19 08:14:53;;;;;;;1.73;0.50;;;;;;;20.87;43.49;101230.66;5031575;27;97001;-75
2023/03/19 08:17:20;;;;;;;1.05;0.50;;;;;;;20.82;43.36;101227.56;5030836;27;97266;-75
2023/03/19 08:19:46;;;;;;;2.63;0.65;;;;;;;20.81;43.23;101228.59;5044885;27;97161;-75
2023/03/19 08:22:13;;;;;;;1.02;0.50;;;;;;;20.77;43.54;101235.38;5050943;27;96921;-76
2023/03/19 08:24:39;;;;;;;0.70;0.50;;;;;;;20.73;43.49;101239.44;5050578;27;97303;-76
2023/03/19 08:27:06;;;;;;;1.05;0.50;;;;;;;20.72;43.74;101247.81;5032237;27;97068;-75
2023/03/19 08:29:34;;;;;;;0.93;0.52;;;;;;;20.69;43.70;101239.94;5031960;27;97069;-75
2023/03/19 08:32:00;;;;;;;0.75;0.45;;;;;;;20.70;43.75;101242.50;5041614;27;96858;-75
2023/03/19 08:34:27;;;;;;;2.88;0.70;;;;;;;20.69;44.04;101245.41;5031221;27;96801;-75
2023/03/19 08:36:53;;;;;;;1.00;0.43;;;;;;;20.71;43.88;101241.47;5033914;27;96798;-76
2023/03/19 08:39:20;;;;;;;0.82;0.50;;;;;;;20.70;44.07;101247.09;5036115;27;96962;-75
2023/03/19 08:41:46;;;;;;;0.90;0.50;;;;;;;20.72;43.88;101247.81;5053364;27;96723;-75
2023/03/19 08:44:13;;;;;;;0.77;0.60;;;;;;;20.67;43.78;101245.56;5038268;27;97250;-75
2023/03/19 08:46:41;;;;;;;0.88;0.50;;;;;;;20.71;44.26;101252.41;5043468;27;96998;-76
2023/03/19 08:49:08;;;;;;;0.85;0.50;;;;;;;20.76;43.88;101255.50;5034981;27;96956;-76
2023/03/19 08:51:37;;;;;;;1.20;0.80;;;;;;;20.79;43.95;101266.06;5053676;27;96840;-75
2023/03/19 08:54:04;;;;;;;0.80;0.50;;;;;;;20.78;43.82;101261.63;5035101;27;97019;-75
2023/03/19 08:56:31;;;;;;;0.80;0.40;;;;;;;20.72;44.00;101258.72;5053774;27;96896;-75
2023/03/19 08:58:57;;;;;;;1.88;0.68;;;;;;;20.69;44.05;101262.63;5034698;27;96876;-75
2023/03/19 09:01:24;;;;;;;1.63;0.55;;;;;;;20.66;44.09;101265.69;5054259;27;96754;-76
2023/03/19 09:03:51;;;;;;;1.85;0.70;;;;;;;20.70;44.09;101272.53;5052267;27;97008;-75
2023/03/19 09:06:17;;;;;;;0.82;0.50;;;;;;;20.67;44.02;101269.28;5057174;27;96972;-75
2023/03/19 09:08:45;;;;;;;0.60;0.40;;;;;;;20.62;44.25;101270.63;5053180;27;96880;-75
2023/03/19 09:11:13;;;;;;;1.05;0.60;;;;;;;20.61;44.03;101273.50;5053205;27;97314;-75
2023/03/19 09:13:39;;;;;;;0.95;0.40;;;;;;;20.63;44.35;101269.59;5034582;27;97434;-75
2023/03/19 09:16:06;;;;;;;0.50;0.32;;;;;;;20.68;44.08;101279.16;5053687;27;96656;-76
2023/03/19 09:18:34;;;;;;;0.73;0.45;;;;;;;20.68;44.12;101284.63;5053073;27;96951;-75
2023/03/19 09:21:01;;;;;;;0.90;0.45;;;;;;;20.69;44.38;101286.34;5034586;27;96822;-76
2023/03/19 09:23:28;;;;;;;0.70;0.50;;;;;;;20.68;44.00;101288.22;5034814;27;99489;-75
2023/03/19 09:25:54;;;;;;;1.30;0.50;;;;;;;20.65;44.36;101280.34;5046814;27;96747;-76
2023/03/19 09:28:21;;;;;;;1.40;0.52;;;;;;;20.67;44.15;101288.38;5042302;27;96622;-75
2023/03/19 09:30:50;;;;;;;0.90;0.57;;;;;;;20.69;44.44;101284.47;5049811;27;96858;-75
2023/03/19 09:33:18;;;;;;;1.05;0.60;;;;;;;20.77;44.30;101289.97;5040538;27;96917;-76
2023/03/19 09:35:51;;;;;;;2.08;0.50;;;;;;;20.83;43.71;101289.34;5044350;27;96792;-75
2023/03/19 09:38:19;;;;;;;0.90;0.60;;;;;;;20.88;43.85;101286.09;5039223;27;97358;-75
2023/03/19 09:40:51;;;;;;;0.90;0.40;;;;;;;20.92;44.04;101303.88;5043102;27;97899;-75
2023/03/19 09:43:36;;;;;;;0.88;0.50;;;;;;;20.96;43.45;101298.94;5039057;27;97327;-75
2023/03/19 09:46:25;;;;;;;0.73;0.47;;;;;;;20.99;43.73;101307.66;5041135;27;96978;-76
2023/03/19 09:49:15;;;;;;;1.35;0.50;;;;;;;21.00;43.58;101308.50;5021996;27;96607;-75
2023/03/19 09:51:56;;;;;;;1.27;0.50;;;;;;;21.01;43.79;101308.34;5026483;27;96594;-75
2023/03/19 09:54:28;;;;;;;1.10;0.60;;;;;;;21.02;43.76;101311.91;5019899;28;98797;-75
2023/03/19 09:56:55;;;;;;;1.38;0.55;;;;;;;21.03;43.51;101319.94;5042448;27;97176;-76
2023/03/19 09:59:24;;;;;;;1.55;0.50;;;;;;;21.01;43.59;101316.53;5026951;27;96901;-76
2023/03/19 10:02:12;;;;;;;0.60;0.45;;;;;;;21.00;43.65;101316.69;5052685;27;97904;-75
2023/03/19 10:05:04;;;;;;;0.90;0.50;;;;;;;21.03;43.50;101324.56;5042480;27;97640;-75
2023/03/19 10:08:03;;;;;;;0.77;0.50;;;;;;;21.04;43.59;101323.53;5033469;27;96729;-75
2023/03/19 10:10:36;;;;;;;1.38;0.40;;;;;;;21.05;43.62;101327.97;5014477;27;96713;-76
2023/03/19 10:13:29;;;;;;;1.15;0.60;;;;;;;21.06;43.24;101326.94;5032482;27;98229;-75
2023/03/19 10:15:59;;;;;;;1.05;0.55;;;;;;;21.07;43.61;101328.66;5033343;27;96745;-76
2023/03/19 10:18:35;;;;;;;1.60;0.70;;;;;;;21.06;43.63;101327.81;5014797;27;96943;-75
2023/03/19 10:21:18;;;;;;;1.48;0.57;;;;;;;21.05;43.37;101323.38;5038887;27;96826;-76
2023/03/19 10:23:53;;;;;;;0.98;0.50;;;;;;;21.08;43.65;101331.22;5026355;27;98252;-75
2023/03/19 10:26:25;;;;;;;1.33;0.60;;;;;;;21.09;43.65;101327.47;5032911;27;97220;-75
2023/03/19 10:29:03;;;;;;;1.30;0.57;;;;;;;21.09;43.48;101332.94;5027401;27;96664;-75
2023/03/19 10:31:42;;;;;;;1.05;0.60;;;;;;;21.09;43.46;101334.81;5034297;27;97411;-75
2023/03/19 10:34:30;;;;;;;1.27;0.50;;;;;;;21.09;43.50;101332.94;5033541;27;99289;-75
2023/03/19 10:37:12;;;;;;;0.65;0.40;;;;;;;21.10;43.48;101328.34;5034119;27;97271;-75
2023/03/19 10:39:42;;;;;;;1.05;0.50;;;;;;;21.10;43.38;101331.06;5052337;27;97032;-75
2023/03/19 10:42:30;;;;;;;1.00;0.47;;;;;;;21.10;43.22;101323.72;5052041;27;96943;-75
2023/03/19 10:45:15;;;;;;;0.90;0.57;;;;;;;21.11;43.52;101335.50;5033684;27;96784;-75
2023/03/19 10:47:42;;;;;;;1.55;0.50;;;;;;;21.11;43.62;101330.91;5052699;27;97916;-75
2023/03/19 10:50:39;;;;;;;1.10;0.70;;;;;;;21.13;43.34;101337.06;5051077;27;96775;-75
2023/03/19 10:53:27;;;;;;;1.30;0.68;;;;;;;21.14;43.41;101337.91;5051736;27;96838;-75
2023/03/19 10:56:00;;;;;;;1.38;0.60;;;;;;;21.15;43.38;101336.88;5034100;27;97649;-76
2023/03/19 10:58:29;;;;;;;0.65;0.40;;;;;;;21.18;43.29;101342.00;5051232;27;96804;-76
2023/03/19 11:01:11;;;;;;;1.50;0.60;;;;;;;21.16;43.37;101341.31;5033460;27;97272;-75
2023/03/19 11:03:48;;;;;;;1.17;0.52;;;;;;;21.16;43.34;101344.91;5051697;27;97248;-75
2023/03/19 11:06:18;;;;;;;0.82;0.50;;;;;;;21.16;43.59;101342.19;5032972;27;99669;-76
2023/03/19 11:09:09;;;;;;;0.93;0.60;;;;;;;21.16;43.51;101344.06;5050980;27;96875;-75
2023/03/19 11:11:44;;;;;;;0.65;0.50;;;;;;;21.16;43.43;101346.78;5004096;27;96655;-75
2023/03/19 11:14:22;;;;;;;0.70;0.50;;;;;;;21.15;43.27;101350.53;5040469;27;96680;-75
2023/03/19 11:17:15;;;;;;;0.57;0.47;;;;;;;21.15;43.43;101350.53;5031790;27;97186;-75
2023/03/19 11:19:48;;;;;;;1.15;0.60;;;;;;;21.17;43.33;101351.22;5050796;27;97884;-77
2023/03/19 11:22:19;;;;;;;1.58;0.60;;;;;;;21.18;43.48;101352.94;5021778;27;96892;-76
2023/03/19 11:24:54;;;;;;;0.88;0.40;;;;;;;21.16;43.33;101350.38;5033222;27;96966;-75
2023/03/19 11:27:34;;;;;;;0.50;0.40;;;;;;;21.16;43.17;101353.09;5050886;27;97008;-75
2023/03/19 11:30:06;;;;;;;1.20;0.60;;;;;;;21.17;43.67;101352.09;5033239;27;97837;-77
2023/03/19 11:32:55;;;;;;;1.33;0.50;;;;;;;21.18;43.62;101355.66;5050286;27;96878;-75
2023/03/19 11:35:27;;;;;;;1.00;0.50;;;;;;;21.17;43.43;101354.81;5029700;27;97031;-75
2023/03/19 11:37:56;;;;;;;0.93;0.60;;;;;;;21.16;43.29;101354.97;5046800;27;97002;-77
2023/03/19 11:40:43;;;;;;;0.68;0.40;;;;;;;21.15;43.37;101358.72;5043527;27;97028;-75